Archival Weather

Chicago O'Hare International

Chicago, Illinois (KORD)

Report from: Wednesday, February 16, 2022 9:51 AM CST
Current time: Saturday, February 4, 2023 11:23 PM CST

Current weather
Weather history
Weather forecast

Temperature9.4°C (48.9°F)
Wind chill6.0°C (42.7°F)
Dew point2.2°C (36.0°F)
Winds 15 kts (7.7 m/s, 17.3 mph) South-Southwest (210°)
Wind gusts 34 kts (17.5 m/s, 39.1 mph)
Peak wind 34 kts (17.5 m/s, 39.1 mph) South-Southwest (210°) at 09:42
Visibility10 mi. (16.1 km)
Clouds Scattered clouds 4,900 ft. (1,494 m)
Ceiling: Broken clouds 7,000 ft. (2,134 m)
Broken clouds 25,000 ft. (7,620 m)
Altimeter29.82 in.Hg (1010 mB)
Relative humidity61 %
Density altitude-446 ft. (-136 m)
Sea-level pressure101.0 kPa (1010 mB, 29.83 in.Hg)
Remarks Automated weather observing station with precipitation discriminator
Flight conditions Visual Meteorological Conditions
Raw dataKORD 161551Z 21015G34KT 10SM SCT049 BKN070 BKN250 09/02 A2982 RMK AO2 PK WND 21034/1542 SLP100 T00940022
An unhandled exception has occurred. See browser dev tools for details. Reload 🗙